Pagrindinis puslapis
METAR-TAF:

METAR-TAF

Oro uostai :

Tarantas, Italija

platuma: 40-31N, ilguma: 017-24E, Aukštis: 64 m

Dabartinis oras

Ataskaita buvo paskelbta 1 valandą ir 20 minutes, ne 13:50 UTC
Vėjas 14 kt iš Pietų/Pietryčių su gūsio iki 24 kt
Temperatūra 20°C
Drėgmė 78%
Slėgis 1009 hPa
Matomumas 10 km arba daugiau
Išsisklaidę debesys ne aukštis 2500 ft

METAR: LIBG 171350Z 16014G24KT 9999 SCT025 20/16 Q1009

Laikas: 16:10 (15:10 UTC)

Prognozė

Ataskaita buvo paskelbta 1 valandą ir 10 minutes, ne 14:00 UTC
Prognozė galioja nuo 17 metu 15 UTC su 17 metu 24 UTC
Vėjas 16 kt iš Pietų su gūsio iki 26 kt
Matomumas 10 km arba daugiau
Išsisklaidę debesys ne aukštis 3000 ft
Laikinai
nuo 17 metu 15 UTC su 17 metu 18 UTC
Matomumas: 4000 m
perkūnija, lietus
Tapsmas
nuo 17 metu 18 UTC su 17 metu 20 UTC
Vėjas 13 kt iš Pietvakarių

TAF: LIBG 171400Z 1715/1724 18016G26KT 9999 SCT030 TEMPO 1715/1718 4000 TSRA BECMG 1718/1720 22013KT

Orai ataskaitas ir orų prognozės (METAR, TAF).

turimą stotys yra geltonos ir raudonos taškus žemėlapyje.

Perkelti pele per norėdami pamatyti stoties vardą.

Tada spustelėkite, norėdami matyti oro stebėjimo ir prognozės.

Norėdami pakeisti žemėlapį: spustelėkite ant žalios mygtukų su juodo kryžiaus žemyn,; žalią mygtuką su brūkšneliu, jei norite nutolinti; arba žalių rodyklių gretimoms žemėlapius.


METAR-TAF: